Time;durP1;ratioP1;P1;durP2;ratioP2;P2;SDS_P1;SDS_P2;PMS_P1;PMS_P2;Temp;Humidity;BMP_temperature;BMP_pressure;BME280_temperature;BME280_humidity;BME280_pressure;Samples;Min_cycle;Max_cycle;Signal;HPM_P1;HPM_P2
2023/02/02 00:00:17;;;;;;;0.40;0.10;;;-0.30;79.50;;;;;;20902009;28;20063;-58
2023/02/02 00:10:19;;;;;;;0.47;0.10;;;-0.30;83.60;;;;;;20904560;28;20056;-60
2023/02/02 00:20:21;;;;;;;0.00;0.00;;;-0.40;83.40;;;;;;20904359;28;20033;-58
2023/02/02 00:30:23;;;;;;;0.00;0.00;;;0.00;82.50;;;;;;20903687;28;20025;-60
2023/02/02 00:40:25;;;;;;;0.47;0.10;;;0.00;84.30;;;;;;20902800;28;20037;-59
2023/02/02 00:50:26;;;;;;;0.30;0.10;;;-0.50;83.60;;;;;;20885020;28;20028;-60
2023/02/02 01:00:28;;;;;;;0.20;0.00;;;-0.50;82.10;;;;;;20901472;28;20087;-60
2023/02/02 01:10:32;;;;;;;1.10;0.00;;;-0.50;81.90;;;;;;20881382;28;20032;-60
2023/02/02 01:20:34;;;;;;;0.00;0.00;;;0.10;79.40;;;;;;20898113;28;20090;-60
2023/02/02 01:30:36;;;;;;;0.10;0.00;;;0.00;81.90;;;;;;20898518;28;20059;-57
2023/02/02 01:40:44;;;;;;;0.00;0.00;;;0.20;79.10;;;;;;20916918;28;20032;-58
2023/02/02 01:50:49;;;;;;;0.03;0.03;;;0.40;82.50;;;;;;20916400;28;20040;-60
2023/02/02 02:00:52;;;;;;;0.30;0.00;;;0.00;80.00;;;;;;20914697;28;20037;-58
2023/02/02 02:10:54;;;;;;;0.15;0.00;;;0.20;79.80;;;;;;20897196;28;20059;-60
2023/02/02 02:32:00;;;;;;;0.20;0.00;;;0.40;78.20;;;;;;20577445;28;20047;-58
2023/02/02 02:42:19;;;;;;;0.22;0.10;;;0.20;80.20;;;;;;20557779;28;20121;-59
2023/02/02 02:52:21;;;;;;;0.60;0.10;;;-0.20;82.40;;;;;;20576394;28;20109;-59
2023/02/02 03:02:36;;;;;;;0.00;0.00;;;-0.20;83.00;;;;;;20641563;28;20052;-59
2023/02/02 03:12:49;;;;;;;0.10;0.00;;;-0.10;79.50;;;;;;20910267;28;20025;-59
2023/02/02 03:22:51;;;;;;;0.13;0.00;;;0.00;80.20;;;;;;20909694;28;20040;-59
2023/02/02 03:32:53;;;;;;;0.10;0.00;;;0.00;81.20;;;;;;20908654;28;20033;-59
2023/02/02 03:42:55;;;;;;;0.00;0.00;;;0.00;81.80;;;;;;20907676;28;20029;-59
2023/02/02 03:52:56;;;;;;;0.32;0.00;;;0.00;77.10;;;;;;20888666;28;20040;-60
2023/02/02 04:02:58;;;;;;;0.00;0.00;;;0.00;82.80;;;;;;20907560;28;20150;-60
2023/02/02 04:13:00;;;;;;;0.00;0.00;;;-0.90;87.30;;;;;;20905751;28;20033;-58
2023/02/02 04:23:02;;;;;;;0.10;0.00;;;-1.40;86.00;;;;;;20904773;28;20025;-58
2023/02/02 04:33:03;;;;;;;0.00;0.00;;;-1.50;87.60;;;;;;20904068;28;20025;-59
2023/02/02 04:43:05;;;;;;;1.55;0.00;;;-1.90;90.40;;;;;;20903604;28;20470;-59
2023/02/02 04:53:06;;;;;;;0.10;0.00;;;-2.00;86.90;;;;;;20902661;28;20079;-58
2023/02/02 05:03:08;;;;;;;0.10;0.00;;;-1.70;86.60;;;;;;20902011;28;20505;-60
2023/02/02 05:13:09;;;;;;;0.08;0.00;;;-1.60;89.20;;;;;;20902001;28;20020;-58
2023/02/02 05:23:11;;;;;;;0.17;0.00;;;-1.60;87.00;;;;;;20901864;28;20025;-58
2023/02/02 05:33:13;;;;;;;0.45;0.03;;;-1.80;89.00;;;;;;20883312;28;20033;-59
2023/02/02 05:43:14;;;;;;;0.20;0.10;;;-0.70;83.30;;;;;;20901069;28;20025;-58
2023/02/02 05:53:16;;;;;;;0.52;0.00;;;-0.30;80.90;;;;;;20900253;28;20021;-58
2023/02/02 06:03:18;;;;;;;0.28;0.00;;;0.00;77.70;;;;;;20895887;28;20037;-59
2023/02/02 06:13:19;;;;;;;0.20;0.00;;;0.10;77.70;;;;;;20908855;28;20037;-59
2023/02/02 06:23:21;;;;;;;1.08;0.00;;;0.20;76.30;;;;;;20895415;28;20431;-58
2023/02/02 06:33:23;;;;;;;0.32;0.10;;;0.10;79.50;;;;;;20912284;28;20471;-59
2023/02/02 06:43:24;;;;;;;0.00;0.00;;;-0.10;80.80;;;;;;20908270;28;20524;-58
2023/02/02 06:53:26;;;;;;;0.10;0.00;;;0.30;77.20;;;;;;20910693;28;20041;-59
2023/02/02 07:03:28;;;;;;;0.55;0.00;;;0.40;78.40;;;;;;20908927;28;20354;-58
2023/02/02 07:13:30;;;;;;;1.30;0.00;;;0.40;78.00;;;;;;20908434;28;20567;-58
2023/02/02 07:23:32;;;;;;;0.10;0.00;;;0.60;78.50;;;;;;20891684;28;20033;-59
2023/02/02 07:33:38;;;;;;;0.43;0.10;;;0.90;77.70;;;;;;20903485;28;20127;-59
2023/02/02 07:43:40;;;;;;;0.03;0.00;;;1.10;78.90;;;;;;20889646;28;20086;-59
2023/02/02 07:53:43;;;;;;;0.52;0.10;;;1.50;75.40;;;;;;20905468;28;20067;-59
2023/02/02 08:03:45;;;;;;;0.00;0.00;;;1.80;74.40;;;;;;20905018;28;20057;-58
2023/02/02 08:13:51;;;;;;;0.00;0.00;;;2.30;74.50;;;;;;20905797;28;20465;-58
2023/02/02 08:23:53;;;;;;;2.55;0.20;;;3.00;75.60;;;;;;20904437;28;20032;-59
2023/02/02 08:33:57;;;;;;;0.10;0.00;;;3.50;74.40;;;;;;20900589;28;20084;-59
2023/02/02 08:43:59;;;;;;;0.20;0.03;;;4.30;72.80;;;;;;20903310;28;20569;-59
2023/02/02 08:54:00;;;;;;;0.10;0.00;;;4.90;73.70;;;;;;20901340;28;20029;-56
2023/02/02 09:04:12;;;;;;;0.17;0.00;;;5.20;71.50;;;;;;20899402;28;20044;-58
2023/02/02 09:14:14;;;;;;;0.45;0.00;;;5.40;70.60;;;;;;20899991;28;20029;-57
2023/02/02 09:24:16;;;;;;;0.30;0.00;;;5.70;68.90;;;;;;20900156;28;20048;-57
2023/02/02 09:34:17;;;;;;;0.20;0.10;;;6.30;67.70;;;;;;20882956;28;20032;-57
2023/02/02 09:44:31;;;;;;;0.00;0.00;;;6.70;69.00;;;;;;20904394;28;20028;-58
2023/02/02 09:54:40;;;;;;;0.82;0.03;;;7.70;66.60;;;;;;20898152;28;20024;-59
2023/02/02 10:04:47;;;;;;;1.38;0.20;;;8.20;66.90;;;;;;20914260;28;20510;-59
2023/02/02 10:14:58;;;;;;;0.10;0.03;;;9.10;68.30;;;;;;20912764;28;20037;-59
2023/02/02 10:24:59;;;;;;;0.97;0.20;;;9.30;64.40;;;;;;20914113;28;20055;-58
2023/02/02 10:35:26;;;;;;;0.60;0.20;;;9.10;64.30;;;;;;20912898;28;20040;-58
2023/02/02 10:45:28;;;;;;;0.32;0.17;;;9.10;65.30;;;;;;20909717;28;20029;-59
2023/02/02 10:55:40;;;;;;;0.43;0.20;;;10.30;70.60;;;;;;20911036;28;20079;-58
2023/02/02 11:16:14;;;;;;;0.22;0.10;;;11.00;60.90;;;;;;20909725;28;20024;-57
2023/02/02 11:26:16;;;;;;;0.40;0.10;;;10.80;64.50;;;;;;20906885;28;20029;-57
2023/02/02 11:36:20;;;;;;;0.20;0.20;;;11.00;64.80;;;;;;20905478;28;20428;-58
2023/02/02 11:46:33;;;;;;;0.75;0.10;;;11.20;61.90;;;;;;20906716;28;20033;-58
2023/02/02 11:56:37;;;;;;;0.00;0.00;;;11.60;59.60;;;;;;20903983;28;20044;-58
2023/02/02 12:06:39;;;;;;;0.55;0.20;;;11.70;60.00;;;;;;20886838;28;20028;-56
2023/02/02 12:16:52;;;;;;;0.35;0.20;;;11.30;63.80;;;;;;20905047;28;20436;-58
2023/02/02 12:27:11;;;;;;;3.08;0.30;;;11.60;65.70;;;;;;20904095;28;20060;-58
2023/02/02 12:37:19;;;;;;;1.95;0.30;;;11.90;61.10;;;;;;20903491;28;20025;-57
2023/02/02 12:47:39;;;;;;;0.40;0.10;;;11.50;64.10;;;;;;20904307;28;20858;-57
2023/02/02 12:58:09;;;;;;;0.63;0.10;;;11.60;62.90;;;;;;20900002;28;20102;-57
2023/02/02 13:08:20;;;;;;;0.50;0.10;;;11.00;66.90;;;;;;20901904;28;20083;-57
2023/02/02 13:18:44;;;;;;;0.32;0.20;;;11.30;60.50;;;;;;20903378;28;20351;-57
2023/02/02 13:29:08;;;;;;;0.20;0.10;;;11.00;65.20;;;;;;20917582;28;20396;-58
2023/02/02 13:39:26;;;;;;;0.70;0.30;;;10.70;67.90;;;;;;20917651;28;20056;-58
2023/02/02 13:49:40;;;;;;;0.70;0.30;;;10.00;67.40;;;;;;20913075;28;20182;-59
2023/02/02 13:59:56;;;;;;;0.40;0.20;;;9.20;69.80;;;;;;20913422;28;20437;-59
2023/02/02 14:09:58;;;;;;;1.13;0.30;;;8.40;71.50;;;;;;20914655;28;20025;-59
2023/02/02 14:20:01;;;;;;;0.50;0.30;;;7.90;71.80;;;;;;20914009;28;20327;-59
2023/02/02 14:30:20;;;;;;;1.92;0.20;;;7.50;70.60;;;;;;20914086;28;20028;-59
2023/02/02 14:40:31;;;;;;;0.63;0.32;;;7.40;69.60;;;;;;20912552;28;20037;-59
2023/02/02 14:50:48;;;;;;;2.63;0.50;;;7.10;71.70;;;;;;20909730;28;20433;-59
2023/02/02 15:01:15;;;;;;;0.63;0.43;;;6.90;73.30;;;;;;20910698;28;20520;-59
2023/02/02 15:11:30;;;;;;;1.23;0.45;;;6.70;74.90;;;;;;20908197;28;20091;-59
2023/02/02 15:21:36;;;;;;;1.52;0.40;;;6.10;77.00;;;;;;20907521;28;20103;-58
2023/02/02 15:31:54;;;;;;;2.75;0.80;;;5.60;78.50;;;;;;20908504;28;20099;-59
2023/02/02 15:52:31;;;;;;;3.83;0.90;;;4.60;80.80;;;;;;20905260;28;20032;-58
2023/02/02 16:02:41;;;;;;;7.50;3.35;;;4.20;80.00;;;;;;20902934;28;20110;-58
2023/02/02 16:12:42;;;;;;;3.80;1.40;;;3.80;89.80;;;;;;20903728;28;20033;-58
2023/02/02 16:22:45;;;;;;;1.52;1.00;;;3.10;91.40;;;;;;20904797;28;20033;-59
2023/02/02 16:32:46;;;;;;;2.88;0.63;;;2.90;90.20;;;;;;20886094;28;20043;-59
2023/02/02 16:43:14;;;;;;;0.93;0.40;;;2.80;88.50;;;;;;20896864;28;20032;-59
2023/02/02 16:53:23;;;;;;;2.67;0.30;;;2.70;88.30;;;;;;20902414;28;20371;-59
2023/02/02 17:03:31;;;;;;;0.88;0.30;;;2.90;87.80;;;;;;20902146;28;20127;-58
2023/02/02 17:13:36;;;;;;;0.88;0.30;;;2.70;84.90;;;;;;20896482;28;20556;-59
2023/02/02 17:23:39;;;;;;;0.73;0.20;;;2.80;87.00;;;;;;20902694;28;20041;-59
2023/02/02 17:33:42;;;;;;;0.70;0.25;;;2.30;89.60;;;;;;20901072;28;20465;-59
2023/02/02 17:43:43;;;;;;;1.13;0.20;;;2.10;90.00;;;;;;20895347;28;20040;-59
2023/02/02 17:53:45;;;;;;;0.10;0.08;;;2.40;88.00;;;;;;20879831;28;20056;-58
2023/02/02 18:03:47;;;;;;;0.10;0.00;;;2.40;86.40;;;;;;20900478;28;20053;-59
2023/02/02 18:13:49;;;;;;;1.02;0.10;;;2.50;88.20;;;;;;20915277;28;20024;-59
2023/02/02 18:23:51;;;;;;;0.32;0.00;;;2.60;87.50;;;;;;20913692;28;20029;-59
2023/02/02 18:33:53;;;;;;;0.30;0.00;;;2.20;88.10;;;;;;20913121;28;20083;-59
2023/02/02 18:43:54;;;;;;;0.08;0.00;;;2.10;87.50;;;;;;20913053;28;20033;-59
2023/02/02 18:53:59;;;;;;;0.52;0.10;;;2.50;87.30;;;;;;20911647;28;20033;-59
2023/02/02 19:04:00;;;;;;;0.10;0.10;;;2.50;86.50;;;;;;20910854;28;20043;-59
2023/02/02 19:14:10;;;;;;;0.30;0.10;;;2.40;86.10;;;;;;20908824;28;20033;-59
2023/02/02 19:24:12;;;;;;;0.30;0.10;;;2.30;88.20;;;;;;20909125;28;20110;-59
2023/02/02 19:34:19;;;;;;;0.65;0.10;;;2.60;85.40;;;;;;20908347;28;20025;-59
2023/02/02 19:44:22;;;;;;;0.05;0.00;;;2.50;87.70;;;;;;20907261;28;20025;-59
2023/02/02 19:54:35;;;;;;;0.22;0.00;;;2.10;91.40;;;;;;20906743;28;20032;-59
2023/02/02 20:04:37;;;;;;;0.25;0.10;;;1.90;89.90;;;;;;20906050;28;20461;-59
2023/02/02 20:14:40;;;;;;;0.40;0.10;;;1.50;90.80;;;;;;20887387;28;20106;-59
2023/02/02 20:24:43;;;;;;;0.30;0.10;;;1.10;92.70;;;;;;20904504;28;20094;-59
2023/02/02 20:34:45;;;;;;;0.52;0.10;;;0.50;94.10;;;;;;20903349;28;20025;-59
2023/02/02 20:44:47;;;;;;;0.30;0.10;;;0.30;94.90;;;;;;20903107;28;20032;-59
2023/02/02 20:54:50;;;;;;;0.13;0.10;;;0.00;94.80;;;;;;20902344;28;20028;-59
2023/02/02 21:04:53;;;;;;;1.73;0.10;;;-0.10;95.60;;;;;;20901750;28;20033;-58
2023/02/02 21:14:56;;;;;;;0.30;0.00;;;-0.20;96.90;;;;;;20902900;28;20076;-57
2023/02/02 21:24:58;;;;;;;0.32;0.00;;;-0.40;96.50;;;;;;20901416;28;20036;-59
2023/02/02 21:34:59;;;;;;;1.98;0.15;;;-0.30;96.00;;;;;;20901172;28;20050;-59
2023/02/02 21:45:35;;;;;;;0.00;0.00;;;-0.40;96.60;;;;;;20913015;28;20374;-60
2023/02/02 21:55:38;;;;;;;0.30;0.10;;;-0.20;96.70;;;;;;20898289;28;20029;-59
2023/02/02 22:05:39;;;;;;;0.10;0.00;;;-0.10;96.70;;;;;;20915305;28;20053;-59
2023/02/02 22:15:46;;;;;;;0.40;0.10;;;-0.20;96.00;;;;;;20914336;28;20033;-58
2023/02/02 22:25:53;;;;;;;0.20;0.00;;;-0.20;96.10;;;;;;20911506;28;20045;-59
2023/02/02 22:35:55;;;;;;;0.15;0.00;;;0.50;93.60;;;;;;20913341;28;20041;-59
2023/02/02 22:45:57;;;;;;;0.10;0.00;;;0.70;94.30;;;;;;20912269;28;20225;-59
2023/02/02 22:55:58;;;;;;;0.32;0.00;;;0.30;95.90;;;;;;20910679;28;20025;-59
2023/02/02 23:06:00;;;;;;;0.15;0.00;;;0.40;93.50;;;;;;20910740;28;20032;-58
2023/02/02 23:16:02;;;;;;;1.30;0.03;;;0.80;95.20;;;;;;20909913;28;20363;-59
2023/02/02 23:26:03;;;;;;;0.00;0.00;;;0.90;92.30;;;;;;20909244;28;20429;-59
2023/02/02 23:36:06;;;;;;;0.10;0.00;;;1.50;91.80;;;;;;20908624;28;20033;-59
2023/02/02 23:46:08;;;;;;;0.00;0.00;;;1.60;92.00;;;;;;20889857;28;20037;-59
2023/02/02 23:56:10;;;;;;;0.10;0.00;;;1.20;93.50;;;;;;20906863;28;20029;-59
